Time;durP1;ratioP1;P1;durP2;ratioP2;P2;SDS_P1;SDS_P2;PMS_P1;PMS_P2;Temp;Humidity;BMP_temperature;BMP_pressure;BME280_temperature;BME280_humidity;BME280_pressure;Samples;Min_cycle;Max_cycle;Signal;HPM_P1;HPM_P2
2023/06/14 00:00:08;;;;;;;7.80;6.30;;;18.80;99.90;;;;;;4955869;28;20721;-58
2023/06/14 00:02:36;;;;;;;8.77;6.57;;;18.70;99.90;;;;;;4955316;28;20224;-58
2023/06/14 00:05:05;;;;;;;10.93;7.00;;;18.70;99.90;;;;;;4945865;28;20287;-57
2023/06/14 00:07:42;;;;;;;8.83;7.23;;;18.70;99.90;;;;;;4954077;28;20612;-57
2023/06/14 00:10:12;;;;;;;9.43;6.97;;;18.60;99.90;;;;;;4955306;28;20231;-58
2023/06/14 00:12:42;;;;;;;7.37;6.43;;;18.60;99.90;;;;;;4953024;28;20226;-57
2023/06/14 00:15:10;;;;;;;9.57;6.27;;;18.50;99.90;;;;;;4955421;28;20207;-57
2023/06/14 00:17:39;;;;;;;9.07;7.33;;;18.50;99.90;;;;;;4956167;28;20239;-58
2023/06/14 00:20:09;;;;;;;11.97;7.20;;;18.40;99.90;;;;;;4950118;28;20747;-58
2023/06/14 00:22:38;;;;;;;8.27;7.10;;;18.40;99.90;;;;;;4954801;28;20230;-58
2023/06/14 00:25:08;;;;;;;9.90;7.30;;;18.30;99.90;;;;;;4955507;28;20246;-58
2023/06/14 00:27:58;;;;;;;9.63;7.30;;;18.30;99.90;;;;;;4954265;28;20220;-58
2023/06/14 00:30:30;;;;;;;11.53;7.57;;;18.20;99.90;;;;;;4954174;28;20196;-58
2023/06/14 00:32:59;;;;;;;9.53;6.90;;;18.20;99.90;;;;;;4954897;28;20192;-58
2023/06/14 00:35:28;;;;;;;12.13;7.30;;;18.10;99.90;;;;;;4949218;28;20237;-57
2023/06/14 00:37:56;;;;;;;9.00;7.30;;;18.10;99.90;;;;;;4949480;28;20227;-57
2023/06/14 00:40:25;;;;;;;8.97;7.57;;;18.00;99.90;;;;;;4953610;28;20220;-57
2023/06/14 00:42:53;;;;;;;10.23;7.80;;;18.00;99.90;;;;;;4954002;28;20220;-58
2023/06/14 00:45:23;;;;;;;12.53;8.10;;;17.90;99.90;;;;;;4954687;28;20280;-58
2023/06/14 00:47:55;;;;;;;13.80;7.97;;;17.90;99.90;;;;;;4953388;29;20192;-58
2023/06/14 00:50:24;;;;;;;10.67;8.07;;;17.80;99.90;;;;;;4953542;28;20276;-58
2023/06/14 00:52:53;;;;;;;11.77;8.53;;;17.80;99.90;;;;;;4952878;28;20220;-58
2023/06/14 00:55:21;;;;;;;8.97;8.07;;;17.70;99.90;;;;;;4953147;28;20229;-58
2023/06/14 00:57:49;;;;;;;9.13;8.07;;;17.70;99.90;;;;;;4950184;28;20232;-58
2023/06/14 01:00:18;;;;;;;10.73;8.73;;;17.70;99.90;;;;;;4951716;28;20239;-57
2023/06/14 01:02:49;;;;;;;11.80;8.33;;;17.70;99.90;;;;;;4951587;28;20200;-58
2023/06/14 01:05:19;;;;;;;11.70;7.97;;;17.60;99.90;;;;;;4951286;28;20307;-58
2023/06/14 01:08:06;;;;;;;11.93;8.03;;;17.60;99.90;;;;;;4952270;28;20219;-59
2023/06/14 01:10:41;;;;;;;12.20;7.87;;;17.60;99.90;;;;;;4954941;28;20588;-57
2023/06/14 01:13:17;;;;;;;10.13;8.27;;;17.60;99.90;;;;;;4952854;28;20224;-57
2023/06/14 01:15:47;;;;;;;11.80;7.97;;;17.60;99.90;;;;;;4950947;28;20234;-57
2023/06/14 01:18:18;;;;;;;11.00;8.90;;;17.50;99.90;;;;;;4950975;28;20238;-58
2023/06/14 01:20:49;;;;;;;9.93;8.30;;;17.40;99.90;;;;;;4951669;28;20253;-58
2023/06/14 01:23:20;;;;;;;8.93;8.13;;;17.40;99.90;;;;;;4950750;28;20231;-58
2023/06/14 01:25:52;;;;;;;9.00;8.10;;;17.40;99.90;;;;;;4947265;28;20597;-58
2023/06/14 01:28:22;;;;;;;9.93;8.93;;;17.40;99.90;;;;;;4951316;28;20560;-58
2023/06/14 01:30:55;;;;;;;11.60;8.97;;;17.40;99.90;;;;;;4953424;28;20220;-58
2023/06/14 01:33:27;;;;;;;9.33;8.40;;;17.30;99.90;;;;;;4947643;28;20548;-58
2023/06/14 01:35:57;;;;;;;13.30;8.87;;;17.30;99.90;;;;;;4948982;28;20892;-58
2023/06/14 01:38:28;;;;;;;10.20;8.53;;;17.20;99.90;;;;;;4950498;28;20654;-58
2023/06/14 01:40:59;;;;;;;12.23;8.43;;;17.10;99.90;;;;;;4949380;28;20235;-57
2023/06/14 01:43:29;;;;;;;9.47;8.23;;;17.10;99.90;;;;;;4952657;28;20315;-58
2023/06/14 01:45:59;;;;;;;9.97;8.97;;;17.10;99.90;;;;;;4953236;28;20704;-58
2023/06/14 01:48:27;;;;;;;12.63;8.63;;;17.00;99.90;;;;;;4945576;28;20286;-58
2023/06/14 01:50:56;;;;;;;11.00;9.33;;;17.00;99.90;;;;;;4950378;29;20575;-58
2023/06/14 01:53:25;;;;;;;11.93;9.03;;;17.00;99.90;;;;;;4952869;28;20233;-58
2023/06/14 01:55:54;;;;;;;11.63;8.83;;;17.00;99.90;;;;;;4952533;28;20242;-58
2023/06/14 01:58:23;;;;;;;11.80;8.83;;;17.00;99.90;;;;;;4950759;28;20233;-58
2023/06/14 02:00:55;;;;;;;11.17;8.80;;;17.00;99.90;;;;;;4948791;28;20320;-58
2023/06/14 02:03:24;;;;;;;13.70;8.70;;;16.90;99.90;;;;;;4957553;28;20202;-59
2023/06/14 02:05:54;;;;;;;10.33;8.97;;;16.90;99.90;;;;;;4954047;28;20320;-58
2023/06/14 02:08:23;;;;;;;10.20;9.20;;;16.90;99.90;;;;;;4949607;28;20277;-58
2023/06/14 02:10:53;;;;;;;12.50;8.77;;;16.90;99.90;;;;;;4945727;28;20680;-58
2023/06/14 02:13:21;;;;;;;9.67;8.27;;;16.90;99.90;;;;;;4954409;28;20227;-58
2023/06/14 02:15:53;;;;;;;8.17;7.20;;;16.90;99.90;;;;;;4952913;28;20230;-58
2023/06/14 02:18:23;;;;;;;12.97;8.10;;;16.80;99.90;;;;;;4952753;28;20271;-58
2023/06/14 02:20:51;;;;;;;10.80;7.47;;;16.80;99.90;;;;;;4957690;28;20556;-57
2023/06/14 02:23:20;;;;;;;8.30;7.60;;;16.80;99.90;;;;;;4954707;28;20231;-59
2023/06/14 02:25:49;;;;;;;9.67;8.40;;;16.70;99.90;;;;;;4954828;28;20267;-58
2023/06/14 02:28:18;;;;;;;10.77;8.53;;;16.70;99.90;;;;;;4955023;28;20233;-58
2023/06/14 02:30:47;;;;;;;8.70;7.77;;;16.60;99.90;;;;;;4954878;28;20597;-58
2023/06/14 02:33:15;;;;;;;12.53;8.63;;;16.50;99.90;;;;;;4954620;28;20241;-57
2023/06/14 02:35:44;;;;;;;10.97;9.40;;;16.50;99.90;;;;;;4952098;28;20278;-58
2023/06/14 02:38:12;;;;;;;10.00;8.93;;;16.40;99.90;;;;;;4956148;28;20237;-58
2023/06/14 02:40:42;;;;;;;11.17;8.50;;;16.40;99.90;;;;;;4955128;28;20235;-58
2023/06/14 02:43:10;;;;;;;9.47;8.53;;;16.30;99.90;;;;;;4954366;28;20570;-58
2023/06/14 02:45:40;;;;;;;10.23;8.53;;;16.30;99.90;;;;;;4955073;28;20316;-58
2023/06/14 02:48:08;;;;;;;15.80;8.70;;;16.30;99.90;;;;;;4955199;28;20583;-57
2023/06/14 02:50:37;;;;;;;10.40;8.17;;;16.30;99.90;;;;;;4955009;28;20681;-58
2023/06/14 02:53:06;;;;;;;13.53;9.03;;;16.20;99.90;;;;;;4954904;28;20224;-58
2023/06/14 02:55:38;;;;;;;11.27;8.90;;;16.20;99.90;;;;;;4954685;28;20245;-58
2023/06/14 02:58:07;;;;;;;15.20;8.70;;;16.20;99.90;;;;;;4954528;28;20741;-58
2023/06/14 03:00:36;;;;;;;10.87;9.30;;;16.10;99.90;;;;;;4954087;28;20231;-58
2023/06/14 03:03:13;;;;;;;14.50;8.97;;;16.10;99.90;;;;;;4954881;28;20240;-58
2023/06/14 03:05:47;;;;;;;10.90;9.50;;;16.00;99.90;;;;;;4947732;29;20587;-58
2023/06/14 03:11:39;;;;;;;12.97;9.50;;;16.00;99.90;;;;;;4954743;29;20545;-58
2023/06/14 03:14:08;;;;;;;9.97;8.97;;;15.90;99.90;;;;;;4953977;28;20243;-58
2023/06/14 03:16:37;;;;;;;11.33;9.80;;;15.90;99.90;;;;;;4954211;28;20292;-58
2023/06/14 03:19:07;;;;;;;10.23;8.53;;;15.90;99.90;;;;;;4953996;28;20606;-57
2023/06/14 03:21:35;;;;;;;11.83;8.97;;;15.90;99.90;;;;;;4944784;28;20719;-58
2023/06/14 03:24:04;;;;;;;9.43;8.47;;;15.90;99.90;;;;;;4953986;29;20201;-58
2023/06/14 03:26:34;;;;;;;12.13;9.27;;;15.90;99.90;;;;;;4954430;28;20303;-57
2023/06/14 03:29:02;;;;;;;14.03;9.20;;;15.90;99.90;;;;;;4954471;28;20275;-58
2023/06/14 03:31:32;;;;;;;14.40;9.20;;;15.90;99.90;;;;;;4958044;28;20228;-57
2023/06/14 03:34:01;;;;;;;10.03;8.70;;;15.90;99.90;;;;;;4958004;28;20548;-58
2023/06/14 03:36:30;;;;;;;10.90;7.93;;;15.90;99.90;;;;;;4957190;28;20229;-57
2023/06/14 03:38:59;;;;;;;12.53;8.23;;;15.90;99.90;;;;;;4958048;28;20250;-58
2023/06/14 03:41:27;;;;;;;13.73;8.83;;;15.90;99.90;;;;;;4957652;28;20308;-58
2023/06/14 03:43:55;;;;;;;13.83;8.83;;;15.90;99.90;;;;;;4957385;28;20216;-57
2023/06/14 03:46:24;;;;;;;9.60;8.53;;;15.90;99.90;;;;;;4957097;28;20244;-58
2023/06/14 03:48:52;;;;;;;12.67;8.37;;;15.80;99.90;;;;;;4951623;28;20588;-58
2023/06/14 03:51:20;;;;;;;9.77;8.80;;;15.80;99.90;;;;;;4941065;28;20196;-58
2023/06/14 03:53:50;;;;;;;9.13;8.23;;;15.80;99.90;;;;;;4957214;28;20267;-58
2023/06/14 03:56:38;;;;;;;10.80;8.47;;;15.80;99.90;;;;;;4953679;28;20208;-58
2023/06/14 03:59:06;;;;;;;11.10;8.37;;;15.70;99.90;;;;;;4956805;28;20316;-58
2023/06/14 04:01:35;;;;;;;10.67;8.10;;;15.70;99.90;;;;;;4956909;28;20247;-58
2023/06/14 04:04:04;;;;;;;10.83;8.60;;;15.70;99.90;;;;;;4957128;28;20596;-58
2023/06/14 04:06:33;;;;;;;8.93;8.03;;;15.70;99.90;;;;;;4957026;28;20283;-57
2023/06/14 04:09:02;;;;;;;9.97;8.97;;;15.60;99.90;;;;;;4957635;28;20215;-58
2023/06/14 04:11:31;;;;;;;9.20;8.13;;;15.60;99.90;;;;;;4957030;28;20224;-58
2023/06/14 04:14:01;;;;;;;11.40;8.93;;;15.60;99.90;;;;;;4957359;28;20228;-58
2023/06/14 04:16:29;;;;;;;11.43;8.80;;;15.50;99.90;;;;;;4964221;28;20240;-58
2023/06/14 04:18:58;;;;;;;11.53;9.50;;;15.50;99.90;;;;;;4957007;28;20248;-58
2023/06/14 04:21:28;;;;;;;9.80;8.80;;;15.50;99.90;;;;;;4957152;28;20248;-58
2023/06/14 04:23:57;;;;;;;9.60;8.43;;;15.50;99.90;;;;;;4957148;28;20220;-58
2023/06/14 04:26:29;;;;;;;12.93;8.93;;;15.50;99.90;;;;;;4956716;28;20244;-58
2023/06/14 04:29:01;;;;;;;9.70;8.77;;;15.50;99.90;;;;;;4956866;28;20259;-58
2023/06/14 04:31:33;;;;;;;11.63;8.87;;;15.50;99.90;;;;;;4967766;28;20228;-58
2023/06/14 04:34:05;;;;;;;10.83;8.90;;;15.60;99.90;;;;;;4956476;28;20240;-58
2023/06/14 04:36:36;;;;;;;10.03;9.00;;;15.60;99.90;;;;;;4956446;28;20228;-59
2023/06/14 04:39:06;;;;;;;13.17;8.53;;;15.60;99.90;;;;;;4956639;28;20212;-57
2023/06/14 04:41:36;;;;;;;14.57;9.33;;;15.70;99.90;;;;;;4955358;28;20223;-57
2023/06/14 04:44:05;;;;;;;10.80;8.13;;;15.80;99.90;;;;;;4956356;28;20224;-57
2023/06/14 04:46:45;;;;;;;8.97;7.70;;;15.80;99.90;;;;;;4956304;28;20226;-57
2023/06/14 04:49:15;;;;;;;10.70;8.03;;;16.00;99.90;;;;;;4956490;28;20607;-57
2023/06/14 04:51:44;;;;;;;10.80;7.33;;;16.10;99.90;;;;;;4956355;28;20627;-57
2023/06/14 04:54:13;;;;;;;9.13;7.87;;;16.20;99.90;;;;;;4956212;28;20209;-56
2023/06/14 04:56:44;;;;;;;9.90;7.57;;;16.30;99.90;;;;;;4956947;28;20200;-57
2023/06/14 04:59:14;;;;;;;8.17;7.10;;;16.50;99.90;;;;;;4955648;28;20308;-58
2023/06/14 05:01:48;;;;;;;11.00;7.80;;;16.50;99.90;;;;;;4956186;28;20239;-57
2023/06/14 05:04:17;;;;;;;9.33;7.30;;;16.70;99.90;;;;;;4956102;28;20328;-57
2023/06/14 05:07:06;;;;;;;10.37;7.00;;;16.80;99.90;;;;;;4955562;28;20230;-57
2023/06/14 05:09:34;;;;;;;6.90;6.20;;;16.90;99.90;;;;;;4955512;28;20231;-57
2023/06/14 05:12:04;;;;;;;9.73;7.27;;;17.10;99.90;;;;;;4956281;28;20205;-57
2023/06/14 05:14:33;;;;;;;9.40;6.57;;;17.30;99.90;;;;;;4951211;29;20570;-57
2023/06/14 05:17:02;;;;;;;13.17;6.90;;;17.40;99.90;;;;;;4954498;29;20251;-57
2023/06/14 05:19:30;;;;;;;8.60;6.53;;;17.50;99.90;;;;;;4955037;28;20239;-57
2023/06/14 05:21:58;;;;;;;6.43;5.80;;;17.60;99.90;;;;;;4955202;28;20232;-57
2023/06/14 05:24:29;;;;;;;9.97;6.90;;;17.70;99.90;;;;;;4955829;28;20238;-57
2023/06/14 05:26:57;;;;;;;12.13;6.70;;;17.90;99.90;;;;;;4952718;29;20212;-57
2023/06/14 05:29:27;;;;;;;7.83;6.97;;;18.00;99.90;;;;;;4942918;28;20215;-58
2023/06/14 05:31:58;;;;;;;8.07;6.63;;;18.10;99.90;;;;;;4955044;28;20591;-57
2023/06/14 05:34:26;;;;;;;12.27;7.70;;;18.30;99.90;;;;;;4955205;28;20230;-58
2023/06/14 05:36:55;;;;;;;11.93;7.40;;;18.50;99.90;;;;;;4970163;28;20220;-57
2023/06/14 05:39:23;;;;;;;11.20;7.50;;;18.60;99.90;;;;;;4954784;28;20307;-58
2023/06/14 05:41:52;;;;;;;8.67;6.83;;;18.60;99.90;;;;;;4955344;28;20192;-57
2023/06/14 05:44:20;;;;;;;11.40;7.30;;;18.70;99.90;;;;;;4955360;28;20228;-57
2023/06/14 05:46:50;;;;;;;9.57;7.07;;;18.80;99.90;;;;;;4955300;28;20698;-57
2023/06/14 05:49:18;;;;;;;11.90;7.43;;;18.80;99.90;;;;;;4954872;28;20246;-58
2023/06/14 05:51:47;;;;;;;8.33;7.13;;;19.00;99.90;;;;;;4954457;28;20219;-57
2023/06/14 05:54:16;;;;;;;12.27;7.63;;;19.10;99.90;;;;;;4949834;28;20211;-57
2023/06/14 05:56:44;;;;;;;9.37;6.97;;;19.10;99.90;;;;;;4955557;29;20204;-58
2023/06/14 05:59:12;;;;;;;9.60;7.00;;;19.20;99.90;;;;;;4954913;28;20236;-58
2023/06/14 06:01:42;;;;;;;9.17;7.50;;;19.30;99.90;;;;;;4954450;28;20687;-58
2023/06/14 06:04:11;;;;;;;9.57;6.70;;;19.30;99.90;;;;;;4939291;28;20216;-57
2023/06/14 06:06:39;;;;;;;11.33;7.47;;;19.40;99.90;;;;;;4954923;28;20282;-58
2023/06/14 06:09:08;;;;;;;7.97;7.17;;;19.60;99.90;;;;;;4953987;28;20189;-57
2023/06/14 06:11:36;;;;;;;13.47;7.00;;;19.60;99.90;;;;;;4962970;28;20199;-58
2023/06/14 06:14:19;;;;;;;9.97;7.53;;;19.70;99.90;;;;;;4964133;28;20230;-58
2023/06/14 06:16:48;;;;;;;8.17;7.07;;;19.80;99.90;;;;;;4954338;28;20232;-58
2023/06/14 06:19:18;;;;;;;11.03;7.03;;;19.90;99.90;;;;;;4954501;28;20278;-58
2023/06/14 06:21:46;;;;;;;11.97;7.60;;;20.10;99.90;;;;;;4954502;28;20227;-58
2023/06/14 06:24:15;;;;;;;10.60;7.27;;;20.20;99.90;;;;;;4954381;28;20197;-57
2023/06/14 06:26:43;;;;;;;9.80;7.10;;;20.20;99.90;;;;;;4955217;28;20196;-58
2023/06/14 06:29:12;;;;;;;9.73;7.30;;;20.40;99.90;;;;;;4954386;28;20326;-58
2023/06/14 06:31:40;;;;;;;10.00;6.90;;;20.40;99.90;;;;;;4954785;28;20622;-58
2023/06/14 06:34:09;;;;;;;8.27;6.50;;;20.60;99.90;;;;;;4941545;28;20348;-58
2023/06/14 06:36:38;;;;;;;8.43;7.10;;;20.80;99.90;;;;;;4955660;28;20235;-58
2023/06/14 06:39:09;;;;;;;8.67;6.97;;;20.90;99.90;;;;;;4954777;28;20202;-58
2023/06/14 06:41:40;;;;;;;11.13;7.50;;;21.00;99.90;;;;;;4954670;28;20251;-57
2023/06/14 06:44:27;;;;;;;12.93;7.83;;;21.10;99.90;;;;;;4954605;28;20231;-57
2023/06/14 06:46:55;;;;;;;10.37;7.23;;;21.10;99.90;;;;;;4940684;28;20248;-58
2023/06/14 06:49:24;;;;;;;11.70;7.07;;;21.20;99.90;;;;;;4943872;28;20232;-57
2023/06/14 06:52:04;;;;;;;10.87;7.50;;;21.30;99.90;;;;;;4954544;28;20228;-58
2023/06/14 06:54:33;;;;;;;7.40;6.47;;;21.40;99.90;;;;;;4949257;28;20614;-58
2023/06/14 06:57:02;;;;;;;9.87;7.00;;;21.60;99.90;;;;;;4960121;28;20247;-58
2023/06/14 06:59:30;;;;;;;9.67;7.07;;;21.70;99.90;;;;;;4937418;28;20283;-58
2023/06/14 07:01:59;;;;;;;10.07;6.70;;;21.80;99.90;;;;;;4954378;28;20220;-58
2023/06/14 07:04:27;;;;;;;10.37;6.40;;;21.80;99.90;;;;;;4955292;28;20595;-58
2023/06/14 07:06:55;;;;;;;7.23;6.53;;;22.00;99.90;;;;;;4952890;28;20227;-58
2023/06/14 07:09:25;;;;;;;10.20;6.70;;;22.10;99.90;;;;;;4958276;28;20211;-58
2023/06/14 07:11:53;;;;;;;11.67;7.07;;;22.20;99.90;;;;;;4958752;28;20189;-57
2023/06/14 07:14:23;;;;;;;10.93;6.80;;;22.40;99.90;;;;;;4957571;28;20234;-57
2023/06/14 07:16:51;;;;;;;11.37;7.13;;;22.60;99.90;;;;;;4958081;28;20230;-57
2023/06/14 07:19:20;;;;;;;8.43;6.90;;;22.60;99.90;;;;;;4943707;28;20240;-57
2023/06/14 07:21:49;;;;;;;9.50;6.67;;;22.70;99.90;;;;;;4956530;28;20228;-57
2023/06/14 07:24:17;;;;;;;10.23;5.90;;;22.80;99.90;;;;;;4957528;28;20218;-58
2023/06/14 07:26:47;;;;;;;11.73;6.57;;;22.90;99.90;;;;;;4958451;28;20695;-58
2023/06/14 07:29:16;;;;;;;9.17;6.80;;;23.10;99.90;;;;;;4957751;28;20616;-58
2023/06/14 07:31:45;;;;;;;7.73;6.60;;;23.20;99.90;;;;;;4957983;28;20711;-57
2023/06/14 07:34:13;;;;;;;9.57;6.43;;;23.20;99.90;;;;;;4957478;28;20272;-58
2023/06/14 07:36:44;;;;;;;9.47;6.50;;;23.20;99.90;;;;;;4954787;28;20235;-57
2023/06/14 07:39:12;;;;;;;8.90;6.53;;;23.30;99.90;;;;;;4957091;28;20294;-58
2023/06/14 07:41:41;;;;;;;7.17;6.47;;;23.40;99.90;;;;;;4956471;29;20224;-58
2023/06/14 07:44:10;;;;;;;7.40;6.43;;;23.60;99.90;;;;;;4957541;28;20251;-58
2023/06/14 07:46:39;;;;;;;8.00;5.57;;;23.60;99.90;;;;;;4944747;28;20228;-58
2023/06/14 07:49:08;;;;;;;7.43;6.00;;;23.80;99.90;;;;;;4951816;28;20319;-58
2023/06/14 07:55:01;;;;;;;10.97;6.50;;;24.10;99.90;;;;;;4954005;28;20557;-58
2023/06/14 07:57:29;;;;;;;7.77;6.20;;;24.30;99.90;;;;;;4950697;28;20564;-58
2023/06/14 07:59:59;;;;;;;6.90;6.20;;;24.30;99.90;;;;;;4956286;28;20233;-58
2023/06/14 08:02:28;;;;;;;9.23;6.73;;;24.30;99.90;;;;;;4957083;28;20224;-58
2023/06/14 08:04:57;;;;;;;6.50;5.90;;;24.40;99.90;;;;;;4956984;28;20233;-58
2023/06/14 08:07:25;;;;;;;7.63;5.97;;;24.50;99.90;;;;;;4956564;28;20256;-58
2023/06/14 08:09:54;;;;;;;8.10;5.83;;;24.60;99.90;;;;;;4956786;28;20230;-58
2023/06/14 08:12:22;;;;;;;6.03;5.43;;;24.90;99.90;;;;;;4956805;28;20208;-58
2023/06/14 08:14:51;;;;;;;8.37;5.97;;;25.00;99.90;;;;;;4956968;28;20531;-58
2023/06/14 08:17:41;;;;;;;7.80;5.60;;;25.30;99.90;;;;;;4956914;28;20665;-58
2023/06/14 08:20:10;;;;;;;6.57;5.53;;;25.30;99.90;;;;;;4956416;28;20274;-58
2023/06/14 08:22:42;;;;;;;8.30;5.70;;;25.30;99.90;;;;;;4956219;28;20238;-59
2023/06/14 08:25:12;;;;;;;11.67;6.27;;;25.40;99.90;;;;;;4962151;28;20248;-59
2023/06/14 08:27:41;;;;;;;10.37;6.00;;;25.60;99.90;;;;;;4956763;28;20229;-58
2023/06/14 08:30:10;;;;;;;9.10;6.57;;;25.70;99.90;;;;;;4956281;28;20196;-58
2023/06/14 08:32:40;;;;;;;8.70;6.20;;;25.80;99.90;;;;;;4956861;28;20192;-59
2023/06/14 08:35:09;;;;;;;9.93;6.03;;;25.80;99.90;;;;;;4956553;28;20224;-58
2023/06/14 08:37:40;;;;;;;11.33;5.83;;;26.00;99.90;;;;;;4956324;28;20239;-59
2023/06/14 08:40:20;;;;;;;11.67;5.40;;;26.20;99.90;;;;;;4956419;28;20256;-59
2023/06/14 08:42:53;;;;;;;6.97;6.00;;;26.30;99.90;;;;;;4956532;28;20216;-59
2023/06/14 08:45:23;;;;;;;8.60;5.50;;;26.40;99.90;;;;;;4956506;28;20251;-58
2023/06/14 08:47:59;;;;;;;6.67;4.60;;;26.50;99.90;;;;;;4962464;28;20192;-59
2023/06/14 08:50:29;;;;;;;11.33;5.40;;;26.50;99.90;;;;;;4956201;28;20247;-59
2023/06/14 08:53:02;;;;;;;9.07;5.23;;;26.70;99.90;;;;;;4956286;28;20231;-59
2023/06/14 08:55:32;;;;;;;10.03;5.67;;;26.80;99.90;;;;;;4956356;28;20687;-59
2023/06/14 08:58:05;;;;;;;6.30;5.47;;;26.90;99.90;;;;;;4956244;28;20255;-59
2023/06/14 09:00:34;;;;;;;8.70;5.43;;;26.90;99.90;;;;;;4955512;28;20710;-59
2023/06/14 09:03:05;;;;;;;5.77;4.87;;;27.10;99.90;;;;;;4956502;28;20645;-59
2023/06/14 09:05:34;;;;;;;10.17;5.37;;;27.20;99.90;;;;;;4956349;28;20271;-59
2023/06/14 09:08:02;;;;;;;6.38;4.95;;;27.30;99.90;;;;;;4955794;28;20251;-59
2023/06/14 09:10:35;;;;;;;6.73;5.03;;;27.40;99.90;;;;;;4955659;28;20238;-59
2023/06/14 09:13:04;;;;;;;8.73;5.20;;;27.50;99.90;;;;;;4955252;28;20579;-59
2023/06/14 09:15:32;;;;;;;7.00;5.00;;;27.60;99.90;;;;;;4955473;28;20228;-58
2023/06/14 09:18:05;;;;;;;10.05;5.10;;;27.60;99.90;;;;;;4956573;28;20203;-59
2023/06/14 09:20:34;;;;;;;5.30;4.80;;;27.80;99.90;;;;;;4955589;28;20246;-59
2023/06/14 09:23:05;;;;;;;10.52;5.05;;;28.00;99.90;;;;;;4943135;28;20684;-59
2023/06/14 09:25:34;;;;;;;9.48;5.18;;;28.20;99.90;;;;;;4965915;28;20289;-59
2023/06/14 09:28:10;;;;;;;7.30;4.80;;;28.20;99.90;;;;;;4962461;28;20231;-59
2023/06/14 09:30:41;;;;;;;6.10;4.82;;;28.30;99.90;;;;;;4955890;28;20580;-58
2023/06/14 09:33:12;;;;;;;7.82;5.13;;;28.50;99.90;;;;;;4955460;28;20666;-58
2023/06/14 09:35:40;;;;;;;11.90;5.18;;;28.60;99.90;;;;;;4941552;29;20200;-59
2023/06/14 09:38:09;;;;;;;5.93;5.30;;;28.70;99.50;;;;;;4954951;28;20684;-59
2023/06/14 09:40:38;;;;;;;7.72;4.82;;;28.80;99.90;;;;;;4954687;28;20718;-59
2023/06/14 09:43:09;;;;;;;8.88;5.13;;;28.80;99.70;;;;;;4957578;28;20576;-58
2023/06/14 09:45:40;;;;;;;5.88;4.53;;;28.70;99.90;;;;;;4955408;28;20284;-58
2023/06/14 09:48:10;;;;;;;6.00;5.38;;;28.80;99.90;;;;;;4954812;28;20208;-58
2023/06/14 09:50:40;;;;;;;8.77;5.30;;;29.00;99.90;;;;;;4955186;28;20188;-58
2023/06/14 09:53:11;;;;;;;5.95;5.00;;;29.20;99.90;;;;;;4954394;28;20230;-58
2023/06/14 09:55:42;;;;;;;5.18;4.70;;;29.30;99.90;;;;;;4943456;28;20226;-59
2023/06/14 09:58:13;;;;;;;5.38;4.80;;;29.20;99.10;;;;;;4951389;28;20259;-59
2023/06/14 10:00:43;;;;;;;6.75;5.15;;;29.20;99.50;;;;;;4954063;28;20342;-59
2023/06/14 10:03:17;;;;;;;6.40;5.00;;;29.20;97.00;;;;;;4954270;28;20214;-59
2023/06/14 10:05:48;;;;;;;7.60;5.28;;;29.20;96.60;;;;;;4968734;28;20191;-59
2023/06/14 10:08:18;;;;;;;9.48;4.68;;;29.10;98.00;;;;;;4949685;28;20225;-59
2023/06/14 10:10:47;;;;;;;6.88;4.80;;;29.20;98.70;;;;;;4954137;28;20223;-58
2023/06/14 10:13:17;;;;;;;12.32;5.03;;;29.20;96.10;;;;;;4953839;28;20313;-59
2023/06/14 10:15:53;;;;;;;5.00;4.60;;;29.30;95.70;;;;;;4952678;28;20566;-59
2023/06/14 10:18:34;;;;;;;5.18;4.72;;;29.10;96.00;;;;;;4944644;28;20195;-59
2023/06/14 10:21:09;;;;;;;6.40;4.72;;;29.20;94.70;;;;;;4952777;29;20222;-59
2023/06/14 10:23:42;;;;;;;8.05;5.40;;;29.10;95.40;;;;;;4952643;28;20298;-59
2023/06/14 10:26:19;;;;;;;10.00;5.32;;;28.90;95.90;;;;;;4949598;28;20251;-58
2023/06/14 10:28:59;;;;;;;5.38;4.82;;;29.00;95.60;;;;;;4954355;28;20219;-59
2023/06/14 10:31:56;;;;;;;7.03;4.70;;;29.20;95.10;;;;;;4954702;28;20269;-58
2023/06/14 10:34:29;;;;;;;6.88;4.95;;;29.40;96.40;;;;;;4939041;28;20213;-59
2023/06/14 10:37:05;;;;;;;6.53;5.13;;;29.50;95.50;;;;;;4951621;28;20248;-59
2023/06/14 10:39:39;;;;;;;7.60;4.72;;;29.20;96.30;;;;;;4957948;28;20710;-59
2023/06/14 10:42:07;;;;;;;7.05;5.20;;;29.20;97.40;;;;;;4959914;28;20220;-57
2023/06/14 10:44:44;;;;;;;7.78;5.30;;;29.40;96.40;;;;;;4965248;28;20210;-58
2023/06/14 10:47:26;;;;;;;9.15;5.07;;;29.60;96.50;;;;;;4958116;28;20221;-59
2023/06/14 10:49:58;;;;;;;6.50;4.85;;;30.00;95.90;;;;;;4961742;28;20221;-59
2023/06/14 10:52:29;;;;;;;13.98;5.07;;;29.90;95.40;;;;;;4957687;28;20221;-59
2023/06/14 10:55:03;;;;;;;5.78;4.78;;;29.90;94.80;;;;;;4957880;28;20272;-59
2023/06/14 10:57:32;;;;;;;5.05;4.70;;;30.10;95.10;;;;;;4958527;28;20228;-59
2023/06/14 11:00:16;;;;;;;5.78;4.90;;;30.10;95.10;;;;;;4957941;28;20724;-59
2023/06/14 11:03:08;;;;;;;12.13;5.18;;;30.20;94.80;;;;;;4958550;28;20258;-59
2023/06/14 11:05:52;;;;;;;7.38;5.47;;;30.30;93.70;;;;;;4955472;29;20278;-59
2023/06/14 11:09:11;;;;;;;11.10;4.70;;;30.30;94.60;;;;;;4947361;28;20228;-59
2023/06/14 11:11:40;;;;;;;7.00;4.80;;;30.50;93.90;;;;;;4914873;29;20216;-59
2023/06/14 11:14:09;;;;;;;6.72;5.50;;;30.50;93.00;;;;;;4955204;28;20307;-59
2023/06/14 11:16:37;;;;;;;7.13;5.07;;;30.50;93.30;;;;;;4958028;28;20235;-59
2023/06/14 11:19:07;;;;;;;5.20;4.55;;;30.50;93.60;;;;;;4958098;28;20239;-59
2023/06/14 11:21:41;;;;;;;5.00;4.55;;;30.50;92.90;;;;;;4956331;28;20591;-59
2023/06/14 11:24:12;;;;;;;6.65;4.57;;;30.50;93.40;;;;;;4957616;28;20247;-58
2023/06/14 11:26:41;;;;;;;8.85;5.00;;;30.50;93.70;;;;;;4954291;28;20200;-59
2023/06/14 11:29:10;;;;;;;5.95;4.97;;;30.40;92.30;;;;;;4963794;28;20261;-58
2023/06/14 11:35:20;;;;;;;4.50;4.10;;;30.40;93.20;;;;;;4941215;28;20229;-59
2023/06/14 11:41:39;;;;;;;4.82;4.28;;;30.50;91.60;;;;;;4957142;28;20219;-59
2023/06/14 11:44:07;;;;;;;4.38;4.00;;;30.40;90.30;;;;;;4957252;28;20236;-59
2023/06/14 11:46:36;;;;;;;4.93;4.38;;;30.40;91.00;;;;;;4957514;28;20252;-59
2023/06/14 11:49:06;;;;;;;4.53;4.15;;;30.50;91.60;;;;;;4957373;28;20227;-59
2023/06/14 11:51:36;;;;;;;9.63;4.90;;;30.50;91.30;;;;;;4956058;28;20227;-59
2023/06/14 11:54:07;;;;;;;4.75;4.38;;;30.50;88.30;;;;;;4946437;29;20221;-59
2023/06/14 11:56:38;;;;;;;6.53;4.60;;;30.30;90.00;;;;;;4949485;29;20230;-59
2023/06/14 11:59:06;;;;;;;4.95;4.45;;;30.40;90.00;;;;;;4956361;28;20253;-59
2023/06/14 12:01:39;;;;;;;9.23;4.18;;;30.40;90.20;;;;;;4955348;28;20619;-59
2023/06/14 12:04:11;;;;;;;4.88;4.35;;;30.40;88.90;;;;;;4957466;28;20648;-59
2023/06/14 12:06:40;;;;;;;5.05;4.57;;;30.30;87.00;;;;;;4957221;28;20227;-59
2023/06/14 12:09:12;;;;;;;4.60;4.20;;;30.20;89.20;;;;;;4945643;28;20198;-59
2023/06/14 12:11:43;;;;;;;5.63;4.32;;;30.00;86.70;;;;;;4940972;29;20184;-59
2023/06/14 12:14:11;;;;;;;5.53;4.30;;;29.90;88.90;;;;;;4956914;28;20225;-58
2023/06/14 12:16:41;;;;;;;8.25;4.35;;;29.90;85.30;;;;;;4956813;28;20233;-58
2023/06/14 12:19:13;;;;;;;5.72;3.97;;;29.90;87.80;;;;;;4957169;28;20235;-59
2023/06/14 12:21:43;;;;;;;5.82;4.78;;;30.00;88.00;;;;;;4956949;28;20220;-58
2023/06/14 12:24:12;;;;;;;4.80;4.40;;;30.30;91.80;;;;;;4957476;28;20641;-59
2023/06/14 12:34:05;;;;;;;6.47;4.60;;;30.60;85.90;;;;;;4953732;28;20803;-59
2023/06/14 12:36:35;;;;;;;5.93;4.28;;;30.20;87.90;;;;;;4956290;28;20228;-59
2023/06/14 12:39:04;;;;;;;4.65;4.20;;;30.10;90.10;;;;;;4951316;29;20565;-59
2023/06/14 12:41:32;;;;;;;5.05;4.10;;;30.10;84.40;;;;;;4971864;28;20224;-59
2023/06/14 12:44:04;;;;;;;5.57;5.03;;;30.10;91.10;;;;;;4965621;28;20690;-59
2023/06/14 12:57:36;;;;;;;7.50;4.28;;;30.30;90.80;;;;;;4951234;29;20295;-58
2023/06/14 13:00:07;;;;;;;8.75;4.20;;;30.40;89.10;;;;;;4950055;28;20245;-58
2023/06/14 13:02:35;;;;;;;4.75;3.97;;;30.50;90.90;;;;;;4938956;29;20312;-59
2023/06/14 13:05:04;;;;;;;7.50;3.75;;;30.50;87.60;;;;;;4955636;28;20316;-59
2023/06/14 13:07:33;;;;;;;7.13;4.35;;;30.60;90.10;;;;;;4955626;28;20220;-59
2023/06/14 13:10:01;;;;;;;4.80;3.92;;;30.60;88.40;;;;;;4956039;28;20229;-59
2023/06/14 13:12:29;;;;;;;8.93;4.43;;;30.60;87.40;;;;;;4955022;28;20967;-59
2023/06/14 13:14:59;;;;;;;6.22;4.07;;;30.20;83.50;;;;;;4955790;28;20193;-59
2023/06/14 13:17:27;;;;;;;5.03;4.38;;;30.10;85.30;;;;;;4955654;28;20231;-59
2023/06/14 13:19:56;;;;;;;8.23;4.07;;;30.10;86.40;;;;;;4955598;28;20623;-59
2023/06/14 13:22:32;;;;;;;4.72;4.28;;;30.00;84.20;;;;;;5128463;27;20615;-57
2023/06/14 13:25:00;;;;;;;6.30;4.30;;;30.30;89.00;;;;;;5111058;27;20216;-58
2023/06/14 13:27:28;;;;;;;6.72;3.92;;;30.80;90.20;;;;;;5111045;27;20621;-57
2023/06/14 13:29:57;;;;;;;4.47;4.10;;;31.20;88.90;;;;;;5106616;28;20649;-58
2023/06/14 13:32:25;;;;;;;11.63;4.05;;;31.30;88.40;;;;;;5105272;28;20214;-58